createdAt,value
2022-11-17T00:00:21.980Z,8.75
2022-11-17T00:02:51.286Z,8.73
2022-11-17T00:05:20.612Z,8.72
2022-11-17T00:07:50.372Z,8.73
2022-11-17T00:10:19.842Z,8.72
2022-11-17T00:13:06.926Z,8.75
2022-11-17T00:15:36.358Z,8.76
2022-11-17T00:18:23.671Z,8.73
2022-11-17T00:21:10.346Z,8.72
2022-11-17T00:23:49.648Z,8.78
2022-11-17T00:26:20.958Z,8.76
2022-11-17T00:28:54.553Z,8.77
2022-11-17T00:31:43.744Z,8.81
2022-11-17T00:34:18.275Z,8.90
2022-11-17T00:36:50.089Z,8.86
2022-11-17T00:39:21.519Z,8.87
2022-11-17T00:41:51.022Z,8.84
2022-11-17T00:44:20.348Z,9.01
2022-11-17T00:46:49.633Z,9.04
2022-11-17T00:49:24.002Z,9.02
2022-11-17T00:51:54.594Z,9.08
2022-11-17T00:54:24.117Z,9.07
2022-11-17T00:56:53.319Z,9.04
2022-11-17T00:59:22.916Z,9.02
2022-11-17T01:01:52.195Z,9.05
2022-11-17T01:04:21.607Z,9.04
2022-11-17T01:06:51.343Z,9.08
2022-11-17T01:09:22.758Z,9.11
2022-11-17T01:11:53.858Z,9.12
2022-11-17T01:14:26.306Z,9.15
2022-11-17T01:16:56.001Z,9.09
2022-11-17T01:19:25.847Z,9.09
2022-11-17T01:21:55.212Z,9.11
2022-11-17T01:24:24.394Z,9.15
2022-11-17T01:26:53.672Z,9.19
2022-11-17T01:29:22.931Z,9.19
2022-11-17T01:31:53.029Z,9.19
2022-11-17T01:34:22.255Z,9.23
2022-11-17T01:37:09.339Z,9.21
2022-11-17T01:39:38.588Z,9.24
2022-11-17T01:42:17.343Z,9.32
2022-11-17T01:45:01.363Z,9.25
2022-11-17T01:47:42.397Z,9.27
2022-11-17T01:50:32.984Z,9.28
2022-11-17T01:53:05.582Z,9.35
2022-11-17T01:55:38.799Z,9.31
2022-11-17T01:58:09.009Z,9.29
2022-11-17T02:00:38.220Z,9.31
2022-11-17T02:03:07.930Z,9.31
2022-11-17T02:06:04.698Z,9.28
2022-11-17T02:08:34.725Z,9.27
2022-11-17T02:11:05.877Z,9.29
2022-11-17T02:13:36.640Z,9.33
2022-11-17T02:16:07.278Z,9.36
2022-11-17T02:18:36.830Z,9.34
2022-11-17T02:21:28.496Z,9.30
2022-11-17T02:24:17.203Z,9.29
2022-11-17T02:27:24.757Z,9.27
2022-11-17T02:30:05.090Z,9.29
2022-11-17T02:32:46.258Z,9.23
2022-11-17T02:35:27.272Z,9.18
2022-11-17T02:38:02.218Z,9.12
2022-11-17T02:40:34.442Z,9.18
2022-11-17T02:43:30.144Z,9.08
2022-11-17T02:46:18.780Z,9.15
2022-11-17T02:48:51.308Z,9.08
2022-11-17T02:51:22.935Z,9.21
2022-11-17T02:53:55.237Z,9.25
2022-11-17T02:56:24.696Z,9.14
2022-11-17T02:58:57.435Z,9.15
2022-11-17T03:01:35.607Z,9.12
2022-11-17T03:04:25.008Z,9.16
2022-11-17T03:07:00.171Z,9.14
2022-11-17T03:09:47.822Z,9.27
2022-11-17T03:12:25.719Z,9.34
2022-11-17T03:15:27.136Z,9.31
2022-11-17T03:18:11.603Z,9.26
2022-11-17T03:20:44.048Z,9.33
2022-11-17T03:23:21.312Z,9.32
2022-11-17T03:25:54.691Z,9.36
2022-11-17T03:28:27.019Z,9.47
2022-11-17T03:30:58.098Z,9.53
2022-11-17T03:33:29.014Z,9.51
2022-11-17T03:36:04.576Z,9.42
2022-11-17T03:38:36.818Z,9.48
2022-11-17T03:41:07.803Z,9.45
2022-11-17T03:43:37.937Z,9.41
2022-11-17T03:46:10.647Z,9.39
2022-11-17T03:48:45.739Z,9.33
2022-11-17T03:51:19.865Z,9.39
2022-11-17T03:53:49.551Z,9.34
2022-11-17T03:56:27.594Z,9.30
2022-11-17T03:59:15.421Z,9.32
2022-11-17T04:01:44.780Z,9.31
2022-11-17T04:04:16.879Z,9.33
2022-11-17T04:06:46.376Z,9.34
2022-11-17T04:09:19.918Z,9.31
2022-11-17T04:12:04.668Z,9.41
2022-11-17T04:14:51.836Z,9.40
2022-11-17T04:17:21.120Z,9.38
2022-11-17T04:19:50.355Z,9.41
2022-11-17T04:22:19.932Z,9.37
2022-11-17T04:24:49.284Z,9.41
2022-11-17T04:27:36.771Z,9.39
2022-11-17T04:30:06.910Z,9.36
2022-11-17T04:32:36.187Z,9.42
2022-11-17T04:35:06.190Z,9.41
2022-11-17T04:37:35.725Z,9.41
2022-11-17T04:40:06.065Z,9.45
2022-11-17T04:42:35.276Z,9.43
2022-11-17T04:45:04.865Z,9.39
2022-11-17T04:47:34.036Z,9.38
2022-11-17T04:50:03.266Z,9.38
2022-11-17T04:52:32.441Z,9.36
2022-11-17T04:55:01.695Z,9.37
2022-11-17T04:57:30.918Z,9.36
2022-11-17T05:00:00.193Z,9.37
2022-11-17T05:02:29.438Z,9.36
2022-11-17T05:04:58.867Z,9.40
2022-11-17T05:07:28.135Z,9.39
2022-11-17T05:09:57.756Z,9.35
2022-11-17T05:12:45.039Z,9.39
2022-11-17T05:15:15.979Z,9.43
2022-11-17T05:17:45.167Z,9.44
2022-11-17T05:20:16.092Z,9.51
2022-11-17T05:23:06.768Z,9.56
2022-11-17T05:25:34.367Z,9.56
2022-11-17T05:28:03.689Z,9.53
2022-11-17T05:30:32.966Z,9.55
2022-11-17T05:33:02.308Z,9.57
2022-11-17T05:35:31.814Z,9.56
2022-11-17T05:38:01.026Z,9.55
2022-11-17T05:40:30.224Z,9.57
2022-11-17T05:42:59.404Z,9.54
2022-11-17T05:45:28.694Z,9.54
2022-11-17T05:47:57.892Z,9.52
2022-11-17T05:50:27.175Z,9.54
2022-11-17T05:52:58.071Z,9.52
2022-11-17T05:55:27.655Z,9.55
2022-11-17T05:57:59.990Z,9.58
2022-11-17T06:00:30.359Z,9.56
2022-11-17T06:03:01.552Z,9.60
2022-11-17T06:05:31.001Z,9.57
2022-11-17T06:08:00.183Z,9.57
2022-11-17T06:10:29.423Z,9.51
2022-11-17T06:12:58.599Z,9.51
2022-11-17T06:15:28.442Z,9.40
2022-11-17T06:18:09.848Z,9.40
2022-11-17T06:20:42.084Z,9.41
2022-11-17T06:23:12.437Z,9.28
2022-11-17T06:25:41.666Z,9.28
2022-11-17T06:28:13.505Z,9.23
2022-11-17T06:30:43.865Z,9.22
2022-11-17T06:33:15.384Z,9.10
2022-11-17T06:35:45.845Z,9.04
2022-11-17T06:38:15.066Z,9.01
2022-11-17T06:40:44.384Z,9.00
2022-11-17T06:43:13.570Z,8.94
2022-11-17T06:45:47.343Z,8.91
2022-11-17T06:48:18.371Z,8.87
2022-11-17T06:50:49.347Z,8.88
2022-11-17T06:53:18.557Z,8.83
2022-11-17T06:55:50.144Z,8.85
2022-11-17T06:58:19.342Z,8.84
2022-11-17T07:00:48.770Z,8.83
2022-11-17T07:03:18.010Z,8.74
2022-11-17T07:05:47.403Z,8.71
2022-11-17T07:08:16.647Z,8.72
2022-11-17T07:10:49.236Z,8.69
2022-11-17T07:13:16.844Z,8.70
2022-11-17T07:15:46.316Z,8.65
2022-11-17T07:18:15.726Z,8.66
2022-11-17T07:20:45.279Z,8.67
2022-11-17T07:23:15.093Z,8.66
2022-11-17T07:25:44.631Z,8.63
2022-11-17T07:28:14.982Z,8.61
2022-11-17T07:30:44.264Z,8.63
2022-11-17T07:33:14.061Z,8.62
2022-11-17T07:35:43.558Z,8.61
2022-11-17T07:38:13.108Z,8.66
2022-11-17T07:40:42.543Z,8.61
2022-11-17T07:43:11.997Z,8.61
2022-11-17T07:45:41.285Z,8.66
2022-11-17T07:48:10.665Z,8.66
2022-11-17T07:50:41.557Z,8.62
2022-11-17T07:53:10.934Z,8.66
2022-11-17T07:55:40.220Z,8.64
2022-11-17T07:58:09.853Z,8.67
2022-11-17T08:00:39.140Z,8.63
2022-11-17T08:03:10.288Z,8.66
2022-11-17T08:05:43.434Z,8.67
2022-11-17T08:08:11.039Z,8.67
2022-11-17T08:10:40.514Z,8.69
2022-11-17T08:13:11.321Z,8.65
2022-11-17T08:15:43.656Z,8.67
2022-11-17T08:18:12.975Z,8.66
2022-11-17T08:20:42.390Z,8.65
2022-11-17T08:23:11.690Z,8.63
2022-11-17T08:25:40.911Z,8.63
2022-11-17T08:28:10.216Z,8.65
2022-11-17T08:30:39.636Z,8.62
2022-11-17T08:33:09.149Z,8.66
2022-11-17T08:35:38.483Z,8.63
2022-11-17T08:38:09.529Z,8.70
2022-11-17T08:40:39.361Z,8.66
2022-11-17T08:43:09.135Z,8.64
2022-11-17T08:45:38.473Z,8.67
2022-11-17T08:48:07.949Z,8.65
2022-11-17T08:50:37.428Z,8.67
2022-11-17T08:53:06.826Z,8.67
2022-11-17T08:55:41.206Z,8.62
2022-11-17T08:58:10.039Z,8.62
2022-11-17T09:00:40.752Z,8.56
2022-11-17T09:03:13.110Z,8.56
2022-11-17T09:05:45.277Z,8.55
2022-11-17T09:08:44.874Z,8.53
2022-11-17T09:10:47.869Z,8.56
2022-11-17T09:13:18.756Z,8.55
2022-11-17T09:15:49.454Z,8.57
2022-11-17T09:18:18.729Z,8.54
2022-11-17T09:20:48.022Z,8.51
2022-11-17T09:23:17.250Z,8.48
2022-11-17T09:25:46.482Z,8.41
2022-11-17T09:28:15.847Z,8.39
2022-11-17T09:30:45.298Z,8.38
2022-11-17T09:33:14.545Z,8.38
2022-11-17T09:35:43.832Z,8.38
2022-11-17T09:38:13.291Z,8.40
2022-11-17T09:40:43.251Z,8.46
2022-11-17T09:43:21.670Z,8.49
2022-11-17T09:45:51.098Z,8.44
2022-11-17T09:48:40.808Z,8.43
2022-11-17T09:50:56.446Z,8.38
2022-11-17T09:53:30.677Z,8.36
2022-11-17T09:56:03.077Z,8.38
2022-11-17T09:58:35.843Z,8.37
2022-11-17T10:01:05.523Z,8.40
2022-11-17T10:03:45.233Z,8.40
2022-11-17T10:06:15.335Z,8.41
2022-11-17T10:09:26.108Z,8.45
2022-11-17T10:11:57.982Z,8.53
2022-11-17T10:14:29.297Z,8.57
2022-11-17T10:16:59.651Z,8.63
2022-11-17T10:19:31.797Z,8.67
2022-11-17T10:22:07.446Z,8.65
2022-11-17T10:24:39.356Z,8.67
2022-11-17T10:27:26.975Z,8.67
2022-11-17T10:30:17.101Z,8.65
2022-11-17T10:32:54.900Z,8.66
2022-11-17T10:35:32.534Z,8.65
2022-11-17T10:38:07.188Z,8.68
2022-11-17T10:40:45.551Z,8.62
2022-11-17T10:43:18.175Z,8.66
2022-11-17T10:45:47.266Z,8.73
2022-11-17T10:48:39.209Z,8.77
2022-11-17T10:51:20.441Z,8.76
2022-11-17T10:54:04.300Z,8.84
2022-11-17T10:56:36.827Z,8.85
2022-11-17T10:59:20.384Z,8.94
2022-11-17T11:01:51.552Z,8.96
2022-11-17T11:04:39.998Z,8.93
2022-11-17T11:07:15.309Z,8.81
2022-11-17T11:09:50.278Z,8.74
2022-11-17T11:12:26.065Z,8.70
2022-11-17T11:14:57.044Z,8.78
2022-11-17T11:17:28.616Z,8.88
2022-11-17T11:19:57.933Z,8.92
2022-11-17T11:22:29.858Z,8.95
2022-11-17T11:25:20.392Z,8.97
2022-11-17T11:28:08.097Z,9.06
2022-11-17T11:30:57.221Z,9.02
2022-11-17T11:33:41.514Z,9.02
2022-11-17T11:36:15.376Z,9.05
2022-11-17T11:38:56.532Z,9.07
2022-11-17T11:41:28.935Z,9.07
2022-11-17T11:44:16.682Z,8.97
2022-11-17T11:46:49.428Z,8.89
2022-11-17T11:49:41.649Z,8.84
2022-11-17T11:52:20.061Z,8.94
2022-11-17T11:55:04.783Z,8.92
2022-11-17T11:57:41.941Z,8.98
2022-11-17T12:00:18.452Z,9.02
2022-11-17T12:02:51.162Z,9.08
2022-11-17T12:05:21.395Z,9.11
2022-11-17T12:08:14.771Z,9.15
2022-11-17T12:10:50.513Z,9.18
2022-11-17T12:13:21.720Z,9.08
2022-11-17T12:15:51.044Z,9.11
2022-11-17T12:18:23.437Z,9.27
2022-11-17T12:20:55.237Z,9.29
2022-11-17T12:23:42.751Z,9.23
2022-11-17T12:26:26.360Z,9.15
2022-11-17T12:29:25.938Z,9.12
2022-11-17T12:32:02.981Z,9.13
2022-11-17T12:34:38.347Z,9.18
2022-11-17T12:37:19.043Z,9.24
2022-11-17T12:40:05.675Z,9.28
2022-11-17T12:42:36.190Z,9.31
2022-11-17T12:45:10.571Z,9.28
2022-11-17T12:47:59.163Z,9.20
2022-11-17T12:50:26.097Z,9.16
2022-11-17T12:53:13.824Z,9.14
2022-11-17T12:56:04.813Z,9.11
2022-11-17T12:58:43.286Z,9.08
2022-11-17T13:01:21.584Z,9.08
2022-11-17T13:04:02.997Z,9.15
2022-11-17T13:06:35.885Z,9.26
2022-11-17T13:09:09.651Z,9.30
2022-11-17T13:11:39.074Z,9.41
2022-11-17T13:14:16.970Z,9.41
2022-11-17T13:16:52.797Z,9.48
2022-11-17T13:19:33.859Z,9.46
2022-11-17T13:22:15.563Z,9.59
2022-11-17T13:24:47.099Z,9.59
2022-11-17T13:27:30.391Z,9.53
2022-11-17T13:30:29.074Z,9.48
2022-11-17T13:33:00.877Z,9.55
2022-11-17T13:35:33.123Z,9.62
2022-11-17T13:38:22.790Z,9.56
2022-11-17T13:40:53.554Z,9.61
2022-11-17T13:43:24.284Z,9.70
2022-11-17T13:45:54.677Z,9.79
2022-11-17T13:48:44.148Z,9.83
2022-11-17T13:51:25.336Z,9.88
2022-11-17T13:54:03.058Z,9.86
2022-11-17T13:56:38.115Z,9.99
2022-11-17T13:59:32.188Z,9.94
2022-11-17T14:02:22.783Z,9.99
2022-11-17T14:05:15.191Z,10.07
2022-11-17T14:07:45.487Z,10.04
2022-11-17T14:10:29.490Z,10.08
2022-11-17T14:13:07.768Z,10.12
2022-11-17T14:15:39.595Z,10.20
2022-11-17T14:18:20.836Z,10.20
2022-11-17T14:20:50.147Z,10.08
2022-11-17T14:23:19.783Z,10.19
2022-11-17T14:25:50.171Z,10.19
2022-11-17T14:28:22.817Z,10.26
2022-11-17T14:30:51.894Z,10.22
2022-11-17T14:33:21.276Z,10.19
2022-11-17T14:35:53.688Z,10.21
2022-11-17T14:38:23.343Z,10.14
2022-11-17T14:40:53.549Z,10.21
2022-11-17T14:43:23.469Z,10.24
2022-11-17T14:45:52.684Z,10.24
2022-11-17T14:48:22.395Z,10.14
2022-11-17T14:50:59.225Z,10.27
2022-11-17T14:53:28.578Z,10.18
2022-11-17T14:55:58.505Z,10.15
2022-11-17T14:58:27.884Z,10.14
2022-11-17T15:00:57.207Z,10.18
2022-11-17T15:03:26.656Z,10.21
2022-11-17T15:05:55.921Z,10.06
2022-11-17T15:08:25.462Z,10.09
2022-11-17T15:10:55.373Z,10.06
2022-11-17T15:13:24.628Z,10.08
2022-11-17T15:15:55.488Z,10.09
2022-11-17T15:18:24.720Z,10.01
2022-11-17T15:21:08.279Z,10.00
2022-11-17T15:23:39.148Z,10.04
2022-11-17T15:26:11.803Z,9.95
2022-11-17T15:28:40.297Z,9.93
2022-11-17T15:31:12.049Z,9.87
2022-11-17T15:33:42.377Z,9.85
2022-11-17T15:36:14.477Z,9.94
2022-11-17T15:38:44.069Z,9.87
2022-11-17T15:41:14.189Z,9.79
2022-11-17T15:43:45.534Z,9.87
2022-11-17T15:46:17.329Z,9.87
2022-11-17T15:48:49.260Z,9.83
2022-11-17T15:51:20.107Z,9.83
2022-11-17T15:53:50.907Z,9.80
2022-11-17T15:56:21.759Z,9.81
2022-11-17T15:58:54.188Z,9.71
2022-11-17T16:01:28.539Z,9.92
2022-11-17T16:04:03.006Z,9.90
2022-11-17T16:06:33.979Z,9.83
2022-11-17T16:09:03.275Z,9.93
2022-11-17T16:11:32.670Z,9.89
2022-11-17T16:14:02.253Z,9.95
2022-11-17T16:16:34.616Z,9.80
2022-11-17T16:19:04.267Z,9.90
2022-11-17T16:21:33.771Z,9.94
2022-11-17T16:24:03.587Z,9.96
2022-11-17T16:26:33.085Z,9.99
2022-11-17T16:29:04.465Z,9.97
2022-11-17T16:31:35.793Z,9.98
2022-11-17T16:34:10.995Z,9.99
2022-11-17T16:36:42.424Z,9.97
2022-11-17T16:39:15.402Z,9.91
2022-11-17T16:41:46.221Z,9.80
2022-11-17T16:44:18.234Z,9.86
2022-11-17T16:46:49.948Z,9.81
2022-11-17T16:49:20.643Z,9.79
2022-11-17T16:51:52.085Z,9.71
2022-11-17T16:54:21.472Z,9.75
2022-11-17T16:56:51.029Z,9.71
2022-11-17T16:59:20.601Z,9.76
2022-11-17T17:01:50.088Z,9.75
2022-11-17T17:04:19.411Z,9.82
2022-11-17T17:06:48.741Z,9.75
2022-11-17T17:09:23.210Z,9.69
2022-11-17T17:11:49.387Z,9.68
2022-11-17T17:14:20.087Z,9.57
2022-11-17T17:16:49.423Z,9.54
2022-11-17T17:19:19.262Z,9.63
2022-11-17T17:21:48.566Z,9.60
2022-11-17T17:24:18.015Z,9.54
2022-11-17T17:26:47.213Z,9.56
2022-11-17T17:29:17.000Z,9.47
2022-11-17T17:31:46.426Z,9.49
2022-11-17T17:34:15.781Z,9.46
2022-11-17T17:36:45.083Z,9.43
2022-11-17T17:39:18.539Z,9.45
2022-11-17T17:41:47.858Z,9.53
2022-11-17T17:44:19.272Z,9.48
2022-11-17T17:46:49.226Z,9.42
2022-11-17T17:49:19.575Z,9.46
2022-11-17T17:51:48.875Z,9.37
2022-11-17T17:54:20.727Z,9.30
2022-11-17T17:56:50.004Z,9.22
2022-11-17T17:59:19.820Z,9.30
2022-11-17T18:01:49.832Z,9.28
2022-11-17T18:04:19.109Z,9.13
2022-11-17T18:06:48.923Z,9.15
2022-11-17T18:09:21.502Z,9.24
2022-11-17T18:11:51.449Z,9.11
2022-11-17T18:14:23.567Z,9.08
2022-11-17T18:16:53.628Z,9.07
2022-11-17T18:19:28.238Z,9.11
2022-11-17T18:21:54.526Z,9.15
2022-11-17T18:24:23.731Z,9.20
2022-11-17T18:26:53.026Z,9.11
2022-11-17T18:29:22.524Z,9.12
2022-11-17T18:31:51.850Z,9.14
2022-11-17T18:34:23.423Z,9.10
2022-11-17T18:36:55.653Z,9.09
2022-11-17T18:39:25.450Z,9.13
2022-11-17T18:41:54.773Z,9.08
2022-11-17T18:44:24.086Z,9.14
2022-11-17T18:46:55.961Z,9.15
2022-11-17T18:49:24.616Z,9.24
2022-11-17T18:51:54.058Z,9.22
2022-11-17T18:54:23.671Z,9.13
2022-11-17T18:56:53.041Z,9.13
2022-11-17T18:59:22.476Z,9.20
2022-11-17T19:01:51.799Z,9.18
2022-11-17T19:04:21.401Z,9.11
2022-11-17T19:06:51.127Z,9.12
2022-11-17T19:09:20.631Z,9.13
2022-11-17T19:11:50.327Z,9.16
2022-11-17T19:14:19.842Z,9.13
2022-11-17T19:16:50.772Z,9.15
2022-11-17T19:19:20.460Z,9.17
2022-11-17T19:21:50.136Z,9.12
2022-11-17T19:24:19.532Z,9.10
2022-11-17T19:26:48.891Z,9.04
2022-11-17T19:29:18.857Z,9.05
2022-11-17T19:31:49.439Z,9.05
2022-11-17T19:34:18.783Z,9.01
2022-11-17T19:36:48.766Z,8.97
2022-11-17T19:39:18.440Z,9.02
2022-11-17T19:41:48.076Z,8.96
2022-11-17T19:44:17.528Z,8.86
2022-11-17T19:46:46.972Z,8.89
2022-11-17T19:49:16.621Z,8.91
2022-11-17T19:51:46.196Z,8.88
2022-11-17T19:54:15.638Z,8.89
2022-11-17T19:56:44.978Z,8.90
2022-11-17T19:59:16.696Z,8.82
2022-11-17T20:01:46.231Z,8.84
2022-11-17T20:04:15.956Z,8.73
2022-11-17T20:06:45.201Z,8.65
2022-11-17T20:09:15.796Z,8.57
2022-11-17T20:11:46.103Z,8.69
2022-11-17T20:14:18.303Z,8.62
2022-11-17T20:16:47.576Z,8.60
2022-11-17T20:19:17.253Z,8.56
2022-11-17T20:21:47.635Z,8.52
2022-11-17T20:24:17.084Z,8.45
2022-11-17T20:26:46.307Z,8.49
2022-11-17T20:29:16.280Z,8.43
2022-11-17T20:31:45.643Z,8.47
2022-11-17T20:34:15.127Z,8.41
2022-11-17T20:36:44.371Z,8.39
2022-11-17T20:39:15.871Z,8.43
2022-11-17T20:41:45.307Z,8.36
2022-11-17T20:44:26.475Z,8.34
2022-11-17T20:46:56.875Z,8.36
2022-11-17T20:49:27.921Z,8.38
2022-11-17T20:51:57.144Z,8.33
2022-11-17T20:54:26.691Z,8.32
2022-11-17T20:56:55.904Z,8.33
2022-11-17T20:59:25.729Z,8.39
2022-11-17T21:01:55.448Z,8.32
2022-11-17T21:04:25.004Z,8.29
2022-11-17T21:06:54.255Z,8.31
2022-11-17T21:09:23.546Z,8.23
2022-11-17T21:11:59.042Z,8.12
2022-11-17T21:14:30.526Z,8.11
2022-11-17T21:17:00.674Z,8.07
2022-11-17T21:19:31.696Z,8.10
2022-11-17T21:22:01.489Z,7.97
2022-11-17T21:24:30.762Z,8.03
2022-11-17T21:27:00.119Z,7.98
2022-11-17T21:29:29.602Z,7.94
2022-11-17T21:31:58.983Z,7.89
2022-11-17T21:34:28.242Z,7.98
2022-11-17T21:36:57.472Z,7.92
2022-11-17T21:39:26.886Z,7.80
2022-11-17T21:41:56.256Z,7.87
2022-11-17T21:44:25.506Z,7.86
2022-11-17T21:46:54.740Z,7.83
2022-11-17T21:49:24.134Z,7.79
2022-11-17T21:51:53.369Z,7.77
2022-11-17T21:54:22.595Z,7.67
2022-11-17T21:56:52.115Z,7.67
2022-11-17T21:59:21.446Z,7.59
2022-11-17T22:01:50.912Z,7.56
2022-11-17T22:04:20.327Z,7.54
2022-11-17T22:06:49.778Z,7.47
2022-11-17T22:09:19.573Z,7.45
2022-11-17T22:11:50.250Z,7.40
2022-11-17T22:14:20.956Z,7.33
2022-11-17T22:16:52.991Z,7.35
2022-11-17T22:19:23.816Z,7.28
2022-11-17T22:21:54.254Z,7.22
2022-11-17T22:24:24.088Z,7.27
2022-11-17T22:26:53.540Z,7.21
2022-11-17T22:29:23.311Z,7.21
2022-11-17T22:31:53.038Z,7.09
2022-11-17T22:34:22.966Z,7.12
2022-11-17T22:36:52.189Z,7.07
2022-11-17T22:39:21.740Z,7.05
2022-11-17T22:41:50.981Z,7.03
2022-11-17T22:44:22.028Z,7.00
2022-11-17T22:46:51.284Z,6.98
2022-11-17T22:49:22.395Z,6.93
2022-11-17T22:52:03.610Z,6.96
2022-11-17T22:54:33.383Z,6.99
2022-11-17T22:57:02.953Z,6.98
2022-11-17T22:59:32.466Z,7.00
2022-11-17T23:02:01.705Z,6.97
2022-11-17T23:04:31.046Z,6.97
2022-11-17T23:07:00.405Z,7.01
2022-11-17T23:09:31.072Z,6.99
2022-11-17T23:12:00.303Z,6.94
2022-11-17T23:14:29.754Z,7.01
2022-11-17T23:16:58.992Z,6.97
2022-11-17T23:19:28.399Z,6.97
2022-11-17T23:21:57.605Z,6.91
2022-11-17T23:24:26.952Z,6.91
2022-11-17T23:26:56.408Z,6.89
2022-11-17T23:29:25.611Z,6.86
2022-11-17T23:31:54.912Z,6.88
2022-11-17T23:34:24.269Z,6.89
2022-11-17T23:36:53.674Z,6.83
2022-11-17T23:39:22.872Z,6.82
2022-11-17T23:41:52.114Z,6.82
2022-11-17T23:44:21.324Z,6.75
2022-11-17T23:46:50.560Z,6.81
2022-11-17T23:49:20.102Z,6.78
2022-11-17T23:51:49.471Z,6.76
2022-11-17T23:54:18.701Z,6.73
2022-11-17T23:56:49.718Z,6.73
2022-11-17T23:59:19.501Z,6.68
